Sábado, 25 de Abril del 2015

portal contactenos mapa del sitio buscar Revisar Correo Corporativo

Reporte METAR Consolidado

|| Reporte TAF Consolidado ||

Informe METAR emitido cada hora.

METAR

ESTACIÓN

AEROPUERTO

HORA UTC

DESCRIPCIÓN

SLGM

Guayaramerín

10-49S|65-20W

14:00

SLGM 251400Z 18010KT 9999 SCT015 BKN200 29/25 Q1016 A3002 HR77=

SLRI

Riberalta

11-00S|66-04W

14:00

SLRI 251400Z 14006KT 9999 SCT008 FEW020CB BKN200 28/25 Q1016 A3003 HR82 CB SW=

SLCO

Cobija

11-02S|68-47W

14:00

SLCO 251400Z 16007KT 9999 BKN012 28/25 Q1016 A3002 988.9 HR85 CI=

SLJO

San Joaquin

13-03S|64-39W

14:00

SLJO 251400Z 14006KT 9999 SCT015 BKN080 27/25 Q1016 A3002 HR87 RWY NML=

SLRA

San Ramón

13-15S|64-36W

14:00

COR SLRA 251400Z 14010KT 9999 BKN015 BKN080 27/25 Q1016 A3000 HR86 RWY NML=

SLMG

San Magdalena

13-15S|64-03W

14:00

SLMG 251400Z 11005KT 9999 SCT015 BKN080 28/25 Q1016 A3000 HR83 RWY NML=

SLBU

Baures

13-39S|63-42W

14:00

SLBU 251400Z 18006KT 9999 SCT017 BKN080 28/24 Q1017 A3006 HR79 RWY NML=

SLSA

Santa Ana de Yacuma

13-45S|65-26W

14:00

SLSA 251400Z 14008KT 9999 BKN015 FEW023CB BKN070 26/25 Q1016 A3001 HR92 RERA CB/SH S/W=

SLSR

Santa Rosa

14-04S|66-47W

14:00

SLSR 251400Z 18012KT 9999 SCT020 29/24 Q1014 A2997 HR77 RWY NML=

SLRY

Reyes

14-18S|67-21W

14:00

SLRY 251400Z 18010KT 9999 FEW020 BKN080 29/23 Q1019 A3010 HR74 RWY OPR 1 100M=

SLRQ

Rurrenabaque

14-25S|67-29W

14:00

SLRQ 251400Z 00000KT 9999 BKN023 BKN070 28/25 Q1018 A3007 HR80=

SLAP

Apolo

14-44S|68-24W

-

Mensaje no Recibido

SLTR

Trinidad

14-49S|64-54W

14:00

SLTR 251400Z 14006KT 100V180 9999 SCT012 BKN070 27/24 Q1018 A3007 999.7 HR87 NOSIG=

SLSB

San Borja

14-51S|66-44W

14:00

SLSB 251400Z 13015KT 9999 SCT080 27/24 Q1017 A3004 HR85 RWY NML=

SLSM

San Ignacio de Moxos

14-57S|65-38W

14:00

SLSM 251400Z 14012KT 9999 FEW017 SCT080 BKN200 22/23 Q1017 A3003 HR77 RWY NML=

SLAS

Ascención de Guarayos

15-55S|63-09W

14:00

SLAS 251400Z 18010KT 9999 SCT015 BKN070 25/21 Q1020 A3012 HR80 RWY WET OPR=

SLCP

Concepción

16-08S|62-01W

14:00

SLCP 251400Z 18010KT 9999 OVC013 23/23 Q1021 A3015 HR96 RWY NML =

SLLP

Internaciónal El Alto

16-08S|68-10W

14:00

SLLP 251400Z VRB02KT 9999 SCT015 BKN200 10/03 Q1043 A3080 631.5 P93// AC HR61 NOSIG=

SLJV

San Javier

16-16S|62-28W

14:00

SLJV 251400Z 18010KT 9999 BKN013 23/22 Q1018 A3006 HR95 RERA RWY WET OPR=

SLTI

San Matías

16-20S|58-24W

14:00

SLTI 251400Z 00000KT 9999 SCT017 BKN200 30/25 Q1022 A3018 HR76 RWY NML=

SLSI

San Ignacio de Velasco

16-23S|60-57W

14:00

SLSI 251400Z 21006KT 9999 BKN017 27/24 Q1018 A3006 HR80 RWY NML =

SLCB

Cochabamba

17-25S|66-10W

14:00

SLCB 251400Z 00000KT 9999 FEW015 SCT070 16/11 Q1033 A3050 757.6 HR72 FU CI NOSIG=

SLCN

Charaña

17-35S|69-25W

-

Mensaje no Recibido

SLVR

Internaciónal Viru Viru

17-38S|63-08W

14:00

SLVR 251400Z 18014G25KT 9999 FEW080 SCT200 27/18 Q1020 A3014 HR59 NOSIG=

SLET

El Trompillo

17-48S|63-10W

14:00

SLET 251400Z 17015G27KT 9999 FEW070 BKN200 27/18 Q1020 A3013 HR55 NOSIG=

SLJE

San José de Chiquitos

17-49S|60-44W

14:00

SLJE 251400Z 18004KT 9999 BKN070 28/22 Q1021 A3015 HR69 RWY NML =

SLOR

Oruro

17-57S|67-04W

14:00

SLOR 251400Z 04010KT 9999 FEW015 12/09 Q1041 A3075 660.2 AC/CI HR80=

SLRB

Roboré

18-19S|59-45W

14:00

SLRB 251400Z 00000KT 9999 FEW015 SCT200 28/24 Q1021 A3015 HR75 RWY NML=

SLVG

Valle Grande

18-28S|64-05W

14:00

SLVG 251400Z 00000KT 9999 BKN025 18/13 Q1031 A3045 HR73 RWY NML =

SLPS

Puerto Suárez

18-58S|57-49W

14:00

SLPS 251400Z 06004KT 9999 NSC 31/25 Q1017 A3004 HR70 FU=

SLSU

Sucre

19-00S|65-17W

14:00

SLSU 251400Z 04007KT 9999 FEW007 SCT011 14/11 Q1037 A3064 HR85=

SLPO

Potosí

19-32S|65-43W

14:00

SLPO 251400Z 00000KT 9999 BKN015 SCT070 08/06 Q1044 A3083 HR84=

SLAG

Monteagudo

19-49S|63-58W

-

SLAG WO ATTN=

SLCA

Camiri

20-00S|63-31W

14:00

SLCA 251400Z 00000KT 6000 VCSH BKN008 OVC070 18/17 Q1026 A3030 HR94 SH TODAS DIRECC REDZ RWY WET INOP=

SLUY

Uyuni

20-27S|62-52W

-

SLUY QRX 2200Z=

SLVM

Villamontes

21-15S|63-24W

14:00

SLVM 251400Z 00000KT 9999 FEW007 SCT036 OVC070 22/19 Q1022 A3018 HR85=

SLTJ

Tarija

21-33S|64-42W

14:00

SLTJ 251400Z 00000KT 9999 BKN023 BKN070 17/14 Q1027 A3035 HR79=

SLYA

Yacuiba

21-57S|63-39W

14:00

SLYA 251400Z 00000KT 9999 FEW020 BKN090 23/20 Q1024 A3024 HR82 CI=

SLBJ

Bermejo

22-46S|64-18W

14:00

SLBJ 251400Z 36006KT 9999 NSC 25/21 Q1017 A3003 HR79 CI=